<<    Juni 2013    >>
Datum    Temp.       Tempmin      Tempmax    Taup.       Taup.min      Taup.max    Feuchte    Feuchtemin    Feuchtemax    Druck    Druckmin    Druckmax    Regen    Wind    Benmax  
  01.06.2013  13,2    11,7    23:59    15,3    16:18  9,6    7,4    23:38    11,2    05:02  79,8    64    18:21    95    05:55  1016,3    1012    00:00    1022    23:59  0,9  6,0  20,9  
  02.06.2013  13,8    8,6    05:49    19,9    17:03  4,0    0,5    23:17    7,9    00:39  56,2    29    17:10    89    06:29  1024,5    1021    02:14    1028    23:12  0,0  5,6  24,5  
  03.06.2013  13,1    7,3    04:51    19,6    17:37  2,5    -0,1    01:51    5,3    08:17  50,7    33    16:52    76    07:26  1027,7    1025    16:41    1030    06:43  0,0  3,9  19,4  
  04.06.2013  15,0    7,7    04:46    22,3    16:59  5,4    2,5    00:05    8,3    23:47  55,2    35    15:43    80    06:10  1023,5    1019    17:42    1027    00:00  0,0  3,0  19,8  
  05.06.2013  18,3    9,8    05:22    26,9    16:59  8,4    6,0    17:59    11,7    10:34  56,6    27    17:05    85    05:39  1018,4    1015    20:56    1021    00:00  0,0  1,4  10,1  
  06.06.2013  20,8    13,9    05:40    28,0    16:48  6,4    4,5    18:14    10,2    00:23  41,2    24    17:34    66    00:00  1019,2    1017    17:41    1021    08:41  0,0  1,9  15,8  
  07.06.2013  20,8    12,5    05:38    28,5    15:10  8,3    4,7    15:41    11,4    08:20  48,2    24    15:13    78    06:54  1019,1    1017    17:10    1021    05:41  0,0  1,8  21,2  
  08.06.2013  20,9    15,7    05:43    27,8    16:20  11,2    8,9    00:02    13,3    19:26  55,1    34    16:33    73    06:01  1015,6    1011    20:26    1018    00:00  0,0  2,8  15,8  
  09.06.2013  16,9    13,5    05:53    19,9    14:16  10,0    8,4    05:02    10,9    13:28  64,1    53    14:06    74    06:04  1011,3    1009    18:10    1013    00:00  0,0  4,0  20,9  
  10.06.2013  15,5    11,6    06:32    19,8    16:36  9,5    7,6    16:44    11,0    10:32  69,6    47    16:39    93    06:39  1012,9    1010    00:00    1016    23:40  2,7  2,6  15,1  
  11.06.2013  18,1    12,2    06:33    24,3    17:27  8,1    5,1    14:38    11,0    10:02  55,5    32    17:07    82    06:49  1016,8    1015    03:25    1019    12:25  0,0  1,4  11,9  
  12.06.2013  20,4    16,1    05:53    24,5    12:25  12,0    9,1    00:03    13,7    08:56  59,6    45    12:32    75    06:22  1017,1    1015    17:54    1018    00:00  0,0  2,1  14,0  
  13.06.2013  19,2    12,3    23:48    28,1    14:13  14,4    11,5    23:48    18,3    09:43  75,9    39    14:19    97    20:41  1014,3    1011    14:39    1018    23:39  8,7  2,8  23,8  
  14.06.2013  16,2    11,4    05:28    21,2    13:19  8,6    5,3    18:22    11,7    01:17  63,9    37    18:22    95    00:00  1019,4    1017    17:54    1022    08:11  0,0  2,3  14,0  
  15.06.2013  17,2    11,9    03:23    23,7    14:57  8,0    2,7    21:46    12,4    10:53  57,4    34    15:04    82    06:15  1013,6    1011    10:23    1017    00:00  0,0  2,8  20,5  
  16.06.2013  17,4    12,3    04:10    23,1    14:59  7,0    4,7    00:13    8,8    08:43  52,0    36    14:56    67    05:03  1016,5    1015    00:00    1018    06:09  0,0  2,0  12,2  
  17.06.2013  20,8    12,6    05:49    27,4    14:21  11,5    7,4    00:00    17,4    17:17  57,3    35    13:25    82    06:56  1013,7    1010    17:38    1016    00:08  0,0  1,7  13,0  
  18.06.2013  25,8    18,1    05:24    34,3    16:28  15,6    10,8    17:41    19,3    08:34  59,5    24    17:41    93    05:59  1012,9    1011    00:00    1015    05:39  0,0  0,9  10,1  
  19.06.2013  26,8    21,4    05:28    35,6    14:38  18,5    15,1    14:43    20,9    20:11  63,2    30    14:43    85    06:34  1009,6    1007    13:23    1013    01:22  0,0  2,8  17,3  
  20.06.2013  21,9    18,2    23:59    24,6    17:48  17,7    14,2    19:03    20,6    11:37  78,2    55    17:23    98    14:26  1010,2    1007    18:53    1013    13:35  10,3  2,5  19,4  
  21.06.2013  18,2    18,2    00:00    18,2    00:00  16,9    16,9    00:00    16,9    00:00  92,0    92    00:00    92    00:00  1010,0    1010    00:00    1010    00:00  0,0  2,2  3,6  
  22.06.2013  18,2    18,2    00:00    18,2    00:00  16,9    16,9    00:00    16,9    00:00  92,0    92    00:00    92    00:00  1010,0    1010    00:00    1010    00:00  0,0  2,2  3,6  
  23.06.2013  18,2    18,2    00:00    18,2    00:00  16,9    16,9    00:00    16,9    00:00  92,0    92    00:00    92    00:00  1010,0    1010    00:00    1010    00:00  0,0  2,2  3,6  
  24.06.2013  18,2    18,2    00:00    18,2    00:00  16,9    16,9    00:00    16,9    00:00  92,0    92    00:00    92    00:00  1010,0    1010    00:00    1010    00:00  0,0  2,2  3,6  
  25.06.2013  18,2    18,2    00:00    18,2    00:00  16,9    16,9    00:00    16,9    00:00  92,0    92    00:00    92    00:00  1010,0    1010    00:00    1010    00:00  0,0  2,2  3,6  
  26.06.2013  18,2    18,2    00:00    18,2    00:00  16,9    16,9    00:00    16,9    00:00  92,0    92    00:00    92    00:00  1010,0    1010    00:00    1010    00:00  0,0  2,2  3,6  
  27.06.2013  18,2    18,2    00:00    18,2    00:00  16,9    16,9    00:00    16,9    00:00  92,0    92    00:00    92    00:00  1010,0    1010    00:00    1010    00:00  0,0  2,2  3,6  
  28.06.2013  18,2    18,2    00:00    18,2    00:00  16,9    16,9    00:00    16,9    00:00  92,0    92    00:00    92    00:00  1010,0    1010    00:00    1010    00:00  0,0  2,2  3,6  
  29.06.2013  18,2    18,2    00:00    18,2    00:00  16,9    16,9    00:00    16,9    00:00  92,0    92    00:00    92    00:00  1010,0    1010    00:00    1010    00:00  0,0  2,2  3,6  
  30.06.2013  18,2    18,2    00:00    18,2    00:00  16,9    16,9    00:00    16,9    00:00  92,0    92    00:00    92    00:00  1010,0    1010    00:00    1010    00:00  0,0  2,2  3,6  
 
  Gesamt  18,5  7,3            35,6            12,2  -0,1            20,9            70,6  24            98            1014,4  1007            1030            22,6  2,5  24,5  
 
  Mittelwert  18,5  14,7            22,6            12,2  10,2            14,1            70,6  55,2            86,2            1014,4  1012,5            1016,2            0,8  2,5  12,5  
  Minimum  13,1  7,3            15,3            2,5  -0,1            5,3            41,2  24,0            66,0            1009,6  1007,0            1010,0            0,0  0,9  3,6  
  Maximum  26,8  21,4            35,6            18,5  16,9            20,9            92,0  92,0            98,0            1027,7  1025,0            1030,0            10,3  6,0  24,5  

  Heie Tage    Tmax >=30C     2  
  Sommertage    Tmax >=25C     8  
  Warme Tage    Tmax >=20C     15  
  Kalte Tage    Tmax  <10C     0  
  Frosttage    Tmin  <0C     0  
  Eistage    Tmax  <0C     0  
  Regentage > 0 mm    4  
  Regentage > 2 mm    3  
  Regentage > 10 mm    1  
  Regentage > 20 mm    0